Terminal Aerodrome Forecast
Issued by NWS Wilmington, OH

Current Version | Previous Version | Text Only | Print | Product List | Glossary Off
Versions: 1 2 3 4 5 6 7 8 9 10 11 12 13 14 15 16 17 18 19 20 21 22 23 24 25 26

000
FTUS41 KILN 220055 AAB
TAFCMH
TAF AMD
KCMH 220055Z 2201/2224 33010KT 5SM -TSRA BR SCT020 OVC040CB
      TEMPO 2201/2202 2SM +TSRA BR OVC020CB
     FM220200 20007KT P6SM VCSH BKN040
     FM220400 24006KT P6SM BKN040
     FM220500 28006KT P6SM SCT040=

USA.gov is the U.S. government's official web portal to all federal, state and local government web resources and services.